Impacts TAF Board INFO
FOR SITUATIONAL AWARENESS. NOT TO BE USED FOR FLIGHT PLANNING PURPOSES.
IDs:

KORD - Chicago/O'Hare Intl, IL, US

Issued at 1740 UTC 27 Apr 2017
Updated at 2029 UTC 27 Apr 2017
Potential Impact None Slight Moderate High
Time1951Z 27/21Z 27/22Z 27/23Z 28/00Z 28/01Z 28/02Z 28/03Z 28/04Z 28/05Z 28/06Z 28/07Z 28/08Z 28/09Z>>
Type OBS PRVL PRVL PRVL PRVL PRVL PRVL PRVL PRVL PRVL PRVL PRVL PRVL PRVL
VIS 10 >6 >6 >6 >6 >6 >6 >6 >6 >6 >6 >6 >6 >6
CIG 22 22 22 22 30 30 30 35 35 35 35 35 35 35
Cover OVC OVC OVC OVC OVC OVC OVC BKN BKN BKN BKN BKN BKN BKN
FltCat MVFR MVFR MVFR MVFR MVFR MVFR MVFR VFR VFR VFR VFR VFR VFR VFR
WX -- -- -- -- -- -- -- -- -- -- -- -- -- --
WDir 250 250 250 250 240 240 240 220 220 220 220 220 220 220
WSpd 17 17 17 17 10 10 10 6 6 6 6 6 6 6
WGst 24 26 26 26 16 16 16 -- -- -- -- -- -- --

Raw TAF
KORD 271740Z 2718/2824 25017G26KT P6SM OVC022
  FM280000 24010G16KT P6SM OVC030
  FM280300 22006KT P6SM BKN035
  FM281200 15006KT P6SM BKN060 BKN150
  FM282100 09008KT P6SM -SHRA OVC035


Raw METAR
KORD 271951Z 25017G24KT 10SM OVC022 08/03 A2966 RMK AO2 PK WND 28027/1852 SLP045 T00780028
KORD 271851Z 26017G21KT 10SM OVC019 08/03 A2962 RMK AO2 SLP032 T00780028
KORD 271751Z 26015G25KT 10SM OVC018 08/03 A2960 RMK AO2 PK WND 27027/1721 SLP022 60001 T00780028 10111 20067 51034

METAR Board
Radar Display
Forecast Discussion

FOR SITUATIONAL AWARENESS. NOT TO BE USED FOR FLIGHT PLANNING PURPOSES.

Page loaded:  20:29 UTC  |   01:29 PM Pacific  |   02:29 PM Mountain  |   03:29 PM Central  |   04:29 PM Eastern

 

ADVISORIES

FORECASTS

FORECASTS

OBSERVATIONS

USER TOOLS

ABOUT US